Milford, Utah
Current Conditions -  °F | °C
As of 8:52 PM on Tuesday 27 Jan 2015 (Local Time) from KMLF Reporting Station
Few Clouds Few Clouds  
Wind Chill: 35°   Ceiling: Unl
Heat Index: 42°   Visibility: 10mi
Dew Point: 34°   Wind: 15mph
Humidity: 73%   Direction: 180°S
Pressure: 30.22"   Gusts: NA
Location:  38.4°N, 113.01°W
Report Text: KMLF 280352Z AUTO 18013KT 10SM FEW095 06/01 A3022 RMK AO2 SLP228 T00560011 TSNO
Loading
Personal Weather Stations






























Interactive Weather Map New forecast layout! Learn more

10-Day Weather Forecast

Advertisements
Track Severe Weather on mobile